sensor_id;sensor_type;location;lat;lon;timestamp;P1;durP1;ratioP1;P2;durP2;ratioP2
39448;SDS011;25151;45.566;9.382;2023-06-22T00:00:22;6.22;;;3.58;;
39448;SDS011;25151;45.566;9.382;2023-06-22T00:03:30;5.18;;;3.22;;
39448;SDS011;25151;45.566;9.382;2023-06-22T00:06:33;6.43;;;3.83;;
39448;SDS011;25151;45.566;9.382;2023-06-22T00:09:37;5.82;;;3.50;;
39448;SDS011;25151;45.566;9.382;2023-06-22T00:12:41;6.10;;;3.72;;
39448;SDS011;25151;45.566;9.382;2023-06-22T00:15:45;6.75;;;3.92;;
39448;SDS011;25151;45.566;9.382;2023-06-22T00:18:53;5.47;;;3.28;;
39448;SDS011;25151;45.566;9.382;2023-06-22T00:21:56;5.47;;;3.38;;
39448;SDS011;25151;45.566;9.382;2023-06-22T00:25:00;7.40;;;3.80;;
39448;SDS011;25151;45.566;9.382;2023-06-22T00:28:05;4.72;;;3.38;;
39448;SDS011;25151;45.566;9.382;2023-06-22T00:31:09;4.72;;;3.33;;
39448;SDS011;25151;45.566;9.382;2023-06-22T00:34:14;6.90;;;3.30;;
39448;SDS011;25151;45.566;9.382;2023-06-22T00:37:18;5.80;;;3.35;;
39448;SDS011;25151;45.566;9.382;2023-06-22T00:40:26;7.35;;;3.15;;
39448;SDS011;25151;45.566;9.382;2023-06-22T00:43:30;6.20;;;3.63;;
39448;SDS011;25151;45.566;9.382;2023-06-22T00:46:34;5.85;;;3.63;;
39448;SDS011;25151;45.566;9.382;2023-06-22T00:49:40;4.57;;;3.47;;
39448;SDS011;25151;45.566;9.382;2023-06-22T00:52:44;4.60;;;2.72;;
39448;SDS011;25151;45.566;9.382;2023-06-22T00:55:48;4.93;;;2.90;;
39448;SDS011;25151;45.566;9.382;2023-06-22T00:58:52;6.00;;;3.42;;
39448;SDS011;25151;45.566;9.382;2023-06-22T01:01:58;5.38;;;3.63;;
39448;SDS011;25151;45.566;9.382;2023-06-22T01:05:05;7.32;;;3.80;;
39448;SDS011;25151;45.566;9.382;2023-06-22T01:08:12;6.32;;;3.58;;
39448;SDS011;25151;45.566;9.382;2023-06-22T01:11:24;4.68;;;3.08;;
39448;SDS011;25151;45.566;9.382;2023-06-22T01:14:34;5.30;;;2.80;;
39448;SDS011;25151;45.566;9.382;2023-06-22T01:17:43;6.55;;;3.40;;
39448;SDS011;25151;45.566;9.382;2023-06-22T01:20:50;6.65;;;3.33;;
39448;SDS011;25151;45.566;9.382;2023-06-22T01:23:59;6.40;;;3.50;;
39448;SDS011;25151;45.566;9.382;2023-06-22T01:27:15;5.47;;;3.30;;
39448;SDS011;25151;45.566;9.382;2023-06-22T01:30:29;4.38;;;2.85;;
39448;SDS011;25151;45.566;9.382;2023-06-22T01:33:35;4.60;;;3.00;;
39448;SDS011;25151;45.566;9.382;2023-06-22T01:36:41;5.20;;;3.20;;
39448;SDS011;25151;45.566;9.382;2023-06-22T01:39:45;6.25;;;3.13;;
39448;SDS011;25151;45.566;9.382;2023-06-22T01:42:50;7.00;;;3.70;;
39448;SDS011;25151;45.566;9.382;2023-06-22T01:45:59;4.53;;;2.80;;
39448;SDS011;25151;45.566;9.382;2023-06-22T01:49:03;4.93;;;3.17;;
39448;SDS011;25151;45.566;9.382;2023-06-22T01:52:07;5.70;;;3.28;;
39448;SDS011;25151;45.566;9.382;2023-06-22T01:55:11;5.88;;;3.33;;
39448;SDS011;25151;45.566;9.382;2023-06-22T01:58:16;5.22;;;3.03;;
39448;SDS011;25151;45.566;9.382;2023-06-22T02:01:26;4.80;;;2.95;;
39448;SDS011;25151;45.566;9.382;2023-06-22T02:04:35;4.40;;;2.72;;
39448;SDS011;25151;45.566;9.382;2023-06-22T02:07:45;4.43;;;3.17;;
39448;SDS011;25151;45.566;9.382;2023-06-22T02:10:52;4.40;;;3.13;;
39448;SDS011;25151;45.566;9.382;2023-06-22T02:13:58;5.35;;;3.22;;
39448;SDS011;25151;45.566;9.382;2023-06-22T02:17:04;5.60;;;3.13;;
39448;SDS011;25151;45.566;9.382;2023-06-22T02:20:11;4.22;;;2.95;;
39448;SDS011;25151;45.566;9.382;2023-06-22T02:23:15;4.57;;;2.63;;
39448;SDS011;25151;45.566;9.382;2023-06-22T02:26:20;5.28;;;3.15;;
39448;SDS011;25151;45.566;9.382;2023-06-22T02:29:23;5.63;;;3.28;;
39448;SDS011;25151;45.566;9.382;2023-06-22T02:32:29;4.93;;;3.10;;
39448;SDS011;25151;45.566;9.382;2023-06-22T02:35:34;5.75;;;3.15;;
39448;SDS011;25151;45.566;9.382;2023-06-22T02:38:38;4.65;;;3.00;;
39448;SDS011;25151;45.566;9.382;2023-06-22T02:41:49;5.10;;;3.25;;
39448;SDS011;25151;45.566;9.382;2023-06-22T02:44:53;4.55;;;3.13;;
39448;SDS011;25151;45.566;9.382;2023-06-22T02:47:58;4.57;;;2.83;;
39448;SDS011;25151;45.566;9.382;2023-06-22T02:51:02;5.65;;;2.92;;
39448;SDS011;25151;45.566;9.382;2023-06-22T02:54:06;4.28;;;3.13;;
39448;SDS011;25151;45.566;9.382;2023-06-22T02:57:09;4.55;;;2.70;;
39448;SDS011;25151;45.566;9.382;2023-06-22T03:00:14;6.65;;;3.38;;
39448;SDS011;25151;45.566;9.382;2023-06-22T03:03:21;4.15;;;2.92;;
39448;SDS011;25151;45.566;9.382;2023-06-22T03:06:27;4.55;;;2.90;;
39448;SDS011;25151;45.566;9.382;2023-06-22T03:09:30;4.90;;;3.00;;
39448;SDS011;25151;45.566;9.382;2023-06-22T03:12:35;5.15;;;3.22;;
39448;SDS011;25151;45.566;9.382;2023-06-22T03:15:40;4.70;;;3.25;;
39448;SDS011;25151;45.566;9.382;2023-06-22T03:18:45;5.97;;;2.80;;
39448;SDS011;25151;45.566;9.382;2023-06-22T03:21:48;5.22;;;3.13;;
39448;SDS011;25151;45.566;9.382;2023-06-22T03:24:52;4.97;;;3.22;;
39448;SDS011;25151;45.566;9.382;2023-06-22T03:27:56;6.10;;;4.03;;
39448;SDS011;25151;45.566;9.382;2023-06-22T03:31:01;5.82;;;3.95;;
39448;SDS011;25151;45.566;9.382;2023-06-22T03:34:08;5.47;;;3.60;;
39448;SDS011;25151;45.566;9.382;2023-06-22T03:37:11;4.15;;;2.92;;
39448;SDS011;25151;45.566;9.382;2023-06-22T03:40:16;4.70;;;3.15;;
39448;SDS011;25151;45.566;9.382;2023-06-22T03:43:21;4.28;;;2.97;;
39448;SDS011;25151;45.566;9.382;2023-06-22T03:46:25;4.30;;;2.85;;
39448;SDS011;25151;45.566;9.382;2023-06-22T03:49:30;3.95;;;3.00;;
39448;SDS011;25151;45.566;9.382;2023-06-22T03:52:32;4.95;;;2.90;;
39448;SDS011;25151;45.566;9.382;2023-06-22T03:55:40;4.13;;;2.97;;
39448;SDS011;25151;45.566;9.382;2023-06-22T03:58:50;5.80;;;2.97;;
39448;SDS011;25151;45.566;9.382;2023-06-22T04:01:54;3.75;;;2.83;;
39448;SDS011;25151;45.566;9.382;2023-06-22T04:05:00;5.30;;;2.42;;
39448;SDS011;25151;45.566;9.382;2023-06-22T04:08:04;4.63;;;3.17;;
39448;SDS011;25151;45.566;9.382;2023-06-22T04:11:08;4.18;;;2.72;;
39448;SDS011;25151;45.566;9.382;2023-06-22T04:14:12;8.80;;;3.00;;
39448;SDS011;25151;45.566;9.382;2023-06-22T04:17:15;4.88;;;3.00;;
39448;SDS011;25151;45.566;9.382;2023-06-22T04:20:21;7.63;;;3.28;;
39448;SDS011;25151;45.566;9.382;2023-06-22T04:23:25;6.75;;;3.13;;
39448;SDS011;25151;45.566;9.382;2023-06-22T04:26:27;6.07;;;3.00;;
39448;SDS011;25151;45.566;9.382;2023-06-22T04:29:30;8.05;;;2.78;;
39448;SDS011;25151;45.566;9.382;2023-06-22T04:32:34;5.13;;;3.15;;
39448;SDS011;25151;45.566;9.382;2023-06-22T04:35:39;5.63;;;3.15;;
39448;SDS011;25151;45.566;9.382;2023-06-22T04:38:43;4.53;;;2.40;;
39448;SDS011;25151;45.566;9.382;2023-06-22T04:41:48;5.45;;;3.33;;
39448;SDS011;25151;45.566;9.382;2023-06-22T04:44:52;4.32;;;3.83;;
39448;SDS011;25151;45.566;9.382;2023-06-22T04:47:56;4.82;;;3.30;;
39448;SDS011;25151;45.566;9.382;2023-06-22T04:51:02;9.13;;;2.95;;
39448;SDS011;25151;45.566;9.382;2023-06-22T04:54:05;5.20;;;3.22;;
39448;SDS011;25151;45.566;9.382;2023-06-22T04:57:09;3.80;;;2.30;;
39448;SDS011;25151;45.566;9.382;2023-06-22T05:00:20;4.88;;;3.00;;
39448;SDS011;25151;45.566;9.382;2023-06-22T05:03:25;7.65;;;2.95;;
39448;SDS011;25151;45.566;9.382;2023-06-22T05:06:31;6.07;;;3.35;;
39448;SDS011;25151;45.566;9.382;2023-06-22T05:09:34;7.00;;;3.20;;
39448;SDS011;25151;45.566;9.382;2023-06-22T05:12:41;7.40;;;3.35;;
39448;SDS011;25151;45.566;9.382;2023-06-22T05:15:45;6.28;;;2.85;;
39448;SDS011;25151;45.566;9.382;2023-06-22T05:18:50;6.93;;;2.70;;
39448;SDS011;25151;45.566;9.382;2023-06-22T05:21:56;7.50;;;3.33;;
39448;SDS011;25151;45.566;9.382;2023-06-22T05:24:59;4.03;;;2.90;;
39448;SDS011;25151;45.566;9.382;2023-06-22T05:28:03;4.10;;;3.03;;
39448;SDS011;25151;45.566;9.382;2023-06-22T05:31:12;7.65;;;3.22;;
39448;SDS011;25151;45.566;9.382;2023-06-22T05:34:17;7.20;;;2.60;;
39448;SDS011;25151;45.566;9.382;2023-06-22T05:37:24;8.63;;;2.83;;
39448;SDS011;25151;45.566;9.382;2023-06-22T05:40:28;11.00;;;4.20;;
39448;SDS011;25151;45.566;9.382;2023-06-22T05:43:32;7.25;;;3.28;;
39448;SDS011;25151;45.566;9.382;2023-06-22T05:46:41;5.47;;;3.42;;
39448;SDS011;25151;45.566;9.382;2023-06-22T05:49:47;10.05;;;3.70;;
39448;SDS011;25151;45.566;9.382;2023-06-22T05:52:53;11.00;;;3.88;;
39448;SDS011;25151;45.566;9.382;2023-06-22T05:55:56;20.08;;;4.93;;
39448;SDS011;25151;45.566;9.382;2023-06-22T05:59:01;17.73;;;4.78;;
39448;SDS011;25151;45.566;9.382;2023-06-22T06:02:06;12.38;;;4.53;;
39448;SDS011;25151;45.566;9.382;2023-06-22T06:05:12;19.80;;;5.32;;
39448;SDS011;25151;45.566;9.382;2023-06-22T06:08:20;16.90;;;4.95;;
39448;SDS011;25151;45.566;9.382;2023-06-22T06:11:24;19.70;;;4.93;;
39448;SDS011;25151;45.566;9.382;2023-06-22T06:14:27;17.02;;;5.38;;
39448;SDS011;25151;45.566;9.382;2023-06-22T06:17:31;21.85;;;5.70;;
39448;SDS011;25151;45.566;9.382;2023-06-22T06:20:35;19.88;;;5.63;;
39448;SDS011;25151;45.566;9.382;2023-06-22T06:23:41;14.30;;;5.15;;
39448;SDS011;25151;45.566;9.382;2023-06-22T06:26:45;15.07;;;4.47;;
39448;SDS011;25151;45.566;9.382;2023-06-22T06:29:50;13.40;;;4.70;;
39448;SDS011;25151;45.566;9.382;2023-06-22T06:32:55;22.02;;;5.00;;
39448;SDS011;25151;45.566;9.382;2023-06-22T06:35:59;20.00;;;6.28;;
39448;SDS011;25151;45.566;9.382;2023-06-22T06:39:06;18.35;;;5.25;;
39448;SDS011;25151;45.566;9.382;2023-06-22T06:42:10;19.42;;;4.90;;
39448;SDS011;25151;45.566;9.382;2023-06-22T06:45:15;20.48;;;5.75;;
39448;SDS011;25151;45.566;9.382;2023-06-22T06:48:20;28.30;;;6.07;;
39448;SDS011;25151;45.566;9.382;2023-06-22T06:51:24;19.42;;;5.70;;
39448;SDS011;25151;45.566;9.382;2023-06-22T06:54:29;24.33;;;4.88;;
39448;SDS011;25151;45.566;9.382;2023-06-22T06:57:31;17.95;;;5.50;;
39448;SDS011;25151;45.566;9.382;2023-06-22T07:00:34;25.48;;;5.45;;
39448;SDS011;25151;45.566;9.382;2023-06-22T07:03:36;26.80;;;5.38;;
39448;SDS011;25151;45.566;9.382;2023-06-22T07:06:38;19.48;;;5.38;;
39448;SDS011;25151;45.566;9.382;2023-06-22T07:09:41;15.63;;;5.45;;
39448;SDS011;25151;45.566;9.382;2023-06-22T07:12:43;17.77;;;5.00;;
39448;SDS011;25151;45.566;9.382;2023-06-22T07:15:45;18.25;;;4.80;;
39448;SDS011;25151;45.566;9.382;2023-06-22T07:18:48;16.90;;;5.40;;
39448;SDS011;25151;45.566;9.382;2023-06-22T07:21:51;17.20;;;4.65;;
39448;SDS011;25151;45.566;9.382;2023-06-22T07:24:57;16.25;;;4.10;;
39448;SDS011;25151;45.566;9.382;2023-06-22T07:28:10;13.63;;;4.40;;
39448;SDS011;25151;45.566;9.382;2023-06-22T07:31:13;16.75;;;6.00;;
39448;SDS011;25151;45.566;9.382;2023-06-22T07:34:15;17.33;;;5.95;;
39448;SDS011;25151;45.566;9.382;2023-06-22T07:37:17;15.38;;;5.55;;
39448;SDS011;25151;45.566;9.382;2023-06-22T07:40:21;8.90;;;4.03;;
39448;SDS011;25151;45.566;9.382;2023-06-22T07:43:23;11.10;;;4.82;;
39448;SDS011;25151;45.566;9.382;2023-06-22T07:46:27;9.82;;;3.53;;
39448;SDS011;25151;45.566;9.382;2023-06-22T07:49:30;11.50;;;4.60;;
39448;SDS011;25151;45.566;9.382;2023-06-22T07:52:32;12.10;;;4.47;;
39448;SDS011;25151;45.566;9.382;2023-06-22T07:55:36;10.95;;;4.75;;
39448;SDS011;25151;45.566;9.382;2023-06-22T07:58:39;10.10;;;4.20;;
39448;SDS011;25151;45.566;9.382;2023-06-22T08:01:41;7.50;;;3.92;;
39448;SDS011;25151;45.566;9.382;2023-06-22T08:04:44;8.73;;;3.90;;
39448;SDS011;25151;45.566;9.382;2023-06-22T08:07:46;9.23;;;3.88;;
39448;SDS011;25151;45.566;9.382;2023-06-22T08:10:52;8.60;;;4.40;;
39448;SDS011;25151;45.566;9.382;2023-06-22T08:13:54;13.15;;;4.43;;
39448;SDS011;25151;45.566;9.382;2023-06-22T08:16:58;10.18;;;3.95;;
39448;SDS011;25151;45.566;9.382;2023-06-22T08:20:00;13.18;;;4.38;;
39448;SDS011;25151;45.566;9.382;2023-06-22T08:23:09;9.35;;;4.50;;
39448;SDS011;25151;45.566;9.382;2023-06-22T08:26:15;8.70;;;4.68;;
39448;SDS011;25151;45.566;9.382;2023-06-22T08:29:17;12.57;;;4.03;;
39448;SDS011;25151;45.566;9.382;2023-06-22T08:32:21;13.95;;;4.55;;
39448;SDS011;25151;45.566;9.382;2023-06-22T08:35:23;13.95;;;4.45;;
39448;SDS011;25151;45.566;9.382;2023-06-22T08:38:26;10.10;;;4.32;;
39448;SDS011;25151;45.566;9.382;2023-06-22T08:41:30;8.35;;;3.92;;
39448;SDS011;25151;45.566;9.382;2023-06-22T08:44:32;11.88;;;4.45;;
39448;SDS011;25151;45.566;9.382;2023-06-22T08:47:36;10.23;;;3.90;;
39448;SDS011;25151;45.566;9.382;2023-06-22T08:50:39;8.07;;;3.83;;
39448;SDS011;25151;45.566;9.382;2023-06-22T08:53:42;10.73;;;4.05;;
39448;SDS011;25151;45.566;9.382;2023-06-22T08:56:46;9.45;;;3.72;;
39448;SDS011;25151;45.566;9.382;2023-06-22T08:59:49;9.82;;;4.63;;
39448;SDS011;25151;45.566;9.382;2023-06-22T09:02:52;9.05;;;4.28;;
39448;SDS011;25151;45.566;9.382;2023-06-22T09:05:58;7.22;;;3.70;;
39448;SDS011;25151;45.566;9.382;2023-06-22T09:09:02;7.07;;;3.85;;
39448;SDS011;25151;45.566;9.382;2023-06-22T09:12:08;13.43;;;3.72;;
39448;SDS011;25151;45.566;9.382;2023-06-22T09:15:11;10.50;;;3.85;;
39448;SDS011;25151;45.566;9.382;2023-06-22T09:18:13;7.68;;;3.78;;
39448;SDS011;25151;45.566;9.382;2023-06-22T09:21:15;8.38;;;3.53;;
39448;SDS011;25151;45.566;9.382;2023-06-22T09:24:20;9.20;;;4.03;;
39448;SDS011;25151;45.566;9.382;2023-06-22T09:27:23;11.93;;;3.70;;
39448;SDS011;25151;45.566;9.382;2023-06-22T09:30:25;10.30;;;3.72;;
39448;SDS011;25151;45.566;9.382;2023-06-22T09:33:28;9.07;;;4.55;;
39448;SDS011;25151;45.566;9.382;2023-06-22T09:36:36;7.18;;;3.33;;
39448;SDS011;25151;45.566;9.382;2023-06-22T09:39:39;6.53;;;3.63;;
39448;SDS011;25151;45.566;9.382;2023-06-22T09:42:45;6.88;;;4.07;;
39448;SDS011;25151;45.566;9.382;2023-06-22T09:45:47;7.03;;;3.47;;
39448;SDS011;25151;45.566;9.382;2023-06-22T09:48:51;10.05;;;3.70;;
39448;SDS011;25151;45.566;9.382;2023-06-22T09:51:53;8.10;;;3.83;;
39448;SDS011;25151;45.566;9.382;2023-06-22T09:54:55;7.70;;;3.45;;
39448;SDS011;25151;45.566;9.382;2023-06-22T09:57:58;8.82;;;3.03;;
39448;SDS011;25151;45.566;9.382;2023-06-22T10:01:00;8.48;;;3.75;;
39448;SDS011;25151;45.566;9.382;2023-06-22T10:04:02;7.93;;;3.40;;
39448;SDS011;25151;45.566;9.382;2023-06-22T10:07:04;7.55;;;3.08;;
39448;SDS011;25151;45.566;9.382;2023-06-22T10:10:07;13.63;;;4.13;;
39448;SDS011;25151;45.566;9.382;2023-06-22T10:13:12;7.85;;;3.63;;
39448;SDS011;25151;45.566;9.382;2023-06-22T10:16:16;9.13;;;3.67;;
39448;SDS011;25151;45.566;9.382;2023-06-22T10:19:19;10.90;;;3.97;;
39448;SDS011;25151;45.566;9.382;2023-06-22T10:22:21;7.20;;;3.55;;
39448;SDS011;25151;45.566;9.382;2023-06-22T10:25:23;11.52;;;3.72;;
39448;SDS011;25151;45.566;9.382;2023-06-22T10:28:26;15.43;;;3.95;;
39448;SDS011;25151;45.566;9.382;2023-06-22T10:31:28;10.38;;;4.15;;
39448;SDS011;25151;45.566;9.382;2023-06-22T10:34:31;8.30;;;3.75;;
39448;SDS011;25151;45.566;9.382;2023-06-22T10:37:33;11.68;;;4.05;;
39448;SDS011;25151;45.566;9.382;2023-06-22T10:40:34;7.38;;;3.85;;
39448;SDS011;25151;45.566;9.382;2023-06-22T10:43:38;7.72;;;3.70;;
39448;SDS011;25151;45.566;9.382;2023-06-22T10:46:40;8.98;;;4.45;;
39448;SDS011;25151;45.566;9.382;2023-06-22T10:49:42;9.75;;;4.03;;
39448;SDS011;25151;45.566;9.382;2023-06-22T10:52:45;13.02;;;4.00;;
39448;SDS011;25151;45.566;9.382;2023-06-22T10:55:47;8.20;;;3.63;;
39448;SDS011;25151;45.566;9.382;2023-06-22T10:58:52;13.18;;;4.50;;
39448;SDS011;25151;45.566;9.382;2023-06-22T11:01:54;11.38;;;3.80;;
39448;SDS011;25151;45.566;9.382;2023-06-22T11:04:57;10.38;;;4.28;;
39448;SDS011;25151;45.566;9.382;2023-06-22T11:08:01;8.50;;;3.50;;
39448;SDS011;25151;45.566;9.382;2023-06-22T11:11:03;8.98;;;3.72;;
39448;SDS011;25151;45.566;9.382;2023-06-22T11:14:08;7.35;;;3.40;;
39448;SDS011;25151;45.566;9.382;2023-06-22T11:17:10;8.55;;;4.20;;
39448;SDS011;25151;45.566;9.382;2023-06-22T11:20:12;9.98;;;4.18;;
39448;SDS011;25151;45.566;9.382;2023-06-22T11:23:14;9.80;;;3.80;;
39448;SDS011;25151;45.566;9.382;2023-06-22T11:26:16;6.90;;;3.53;;
39448;SDS011;25151;45.566;9.382;2023-06-22T11:29:20;10.45;;;3.72;;
39448;SDS011;25151;45.566;9.382;2023-06-22T11:32:22;12.95;;;4.40;;
39448;SDS011;25151;45.566;9.382;2023-06-22T11:35:24;10.65;;;3.80;;
39448;SDS011;25151;45.566;9.382;2023-06-22T11:38:26;8.35;;;3.78;;
39448;SDS011;25151;45.566;9.382;2023-06-22T11:41:27;7.50;;;3.95;;
39448;SDS011;25151;45.566;9.382;2023-06-22T11:44:31;14.45;;;3.95;;
39448;SDS011;25151;45.566;9.382;2023-06-22T11:47:33;11.98;;;3.80;;
39448;SDS011;25151;45.566;9.382;2023-06-22T11:50:36;9.05;;;3.70;;
39448;SDS011;25151;45.566;9.382;2023-06-22T11:53:38;8.60;;;3.45;;
39448;SDS011;25151;45.566;9.382;2023-06-22T11:56:40;9.23;;;4.10;;
39448;SDS011;25151;45.566;9.382;2023-06-22T11:59:43;9.73;;;4.13;;
39448;SDS011;25151;45.566;9.382;2023-06-22T12:02:46;6.90;;;3.65;;
39448;SDS011;25151;45.566;9.382;2023-06-22T12:05:49;10.70;;;4.43;;
39448;SDS011;25151;45.566;9.382;2023-06-22T12:08:52;7.85;;;3.60;;
39448;SDS011;25151;45.566;9.382;2023-06-22T12:11:54;8.75;;;3.63;;
39448;SDS011;25151;45.566;9.382;2023-06-22T12:14:58;6.30;;;3.80;;
39448;SDS011;25151;45.566;9.382;2023-06-22T12:18:04;8.13;;;4.00;;
39448;SDS011;25151;45.566;9.382;2023-06-22T12:21:10;9.23;;;3.22;;
39448;SDS011;25151;45.566;9.382;2023-06-22T12:24:12;6.95;;;3.90;;
39448;SDS011;25151;45.566;9.382;2023-06-22T12:27:14;5.57;;;3.35;;
39448;SDS011;25151;45.566;9.382;2023-06-22T12:30:21;11.20;;;4.18;;
39448;SDS011;25151;45.566;9.382;2023-06-22T12:33:23;9.68;;;3.83;;
39448;SDS011;25151;45.566;9.382;2023-06-22T12:36:27;8.05;;;3.78;;
39448;SDS011;25151;45.566;9.382;2023-06-22T12:39:30;10.90;;;3.60;;
39448;SDS011;25151;45.566;9.382;2023-06-22T12:42:35;8.50;;;3.72;;
39448;SDS011;25151;45.566;9.382;2023-06-22T12:45:39;10.93;;;3.70;;
39448;SDS011;25151;45.566;9.382;2023-06-22T12:48:42;13.85;;;4.03;;
39448;SDS011;25151;45.566;9.382;2023-06-22T12:51:45;8.80;;;3.20;;
39448;SDS011;25151;45.566;9.382;2023-06-22T12:54:49;17.02;;;3.45;;
39448;SDS011;25151;45.566;9.382;2023-06-22T12:57:54;7.72;;;3.45;;
39448;SDS011;25151;45.566;9.382;2023-06-22T13:00:58;11.55;;;3.63;;
39448;SDS011;25151;45.566;9.382;2023-06-22T13:04:00;11.52;;;3.42;;
39448;SDS011;25151;45.566;9.382;2023-06-22T13:07:02;8.70;;;3.83;;
39448;SDS011;25151;45.566;9.382;2023-06-22T13:10:07;11.88;;;3.60;;
39448;SDS011;25151;45.566;9.382;2023-06-22T13:13:13;15.57;;;3.92;;
39448;SDS011;25151;45.566;9.382;2023-06-22T13:16:17;10.35;;;3.85;;
39448;SDS011;25151;45.566;9.382;2023-06-22T13:19:19;9.82;;;4.18;;
39448;SDS011;25151;45.566;9.382;2023-06-22T13:22:28;5.03;;;3.17;;
39448;SDS011;25151;45.566;9.382;2023-06-22T13:25:34;7.03;;;3.50;;
39448;SDS011;25151;45.566;9.382;2023-06-22T13:28:37;10.75;;;3.72;;
39448;SDS011;25151;45.566;9.382;2023-06-22T13:31:41;8.10;;;3.45;;
39448;SDS011;25151;45.566;9.382;2023-06-22T13:34:43;9.77;;;3.53;;
39448;SDS011;25151;45.566;9.382;2023-06-22T13:37:46;9.50;;;3.80;;
39448;SDS011;25151;45.566;9.382;2023-06-22T13:40:49;8.02;;;3.70;;
39448;SDS011;25151;45.566;9.382;2023-06-22T13:43:52;9.95;;;3.40;;
39448;SDS011;25151;45.566;9.382;2023-06-22T13:46:57;8.88;;;3.40;;
39448;SDS011;25151;45.566;9.382;2023-06-22T13:50:00;9.00;;;3.63;;
39448;SDS011;25151;45.566;9.382;2023-06-22T13:53:03;6.90;;;3.38;;
39448;SDS011;25151;45.566;9.382;2023-06-22T13:56:07;8.80;;;3.80;;
39448;SDS011;25151;45.566;9.382;2023-06-22T13:59:10;9.32;;;3.70;;
39448;SDS011;25151;45.566;9.382;2023-06-22T14:02:14;5.50;;;3.75;;
39448;SDS011;25151;45.566;9.382;2023-06-22T14:05:17;6.60;;;3.40;;
39448;SDS011;25151;45.566;9.382;2023-06-22T14:08:20;9.25;;;3.25;;
39448;SDS011;25151;45.566;9.382;2023-06-22T14:11:24;7.68;;;3.63;;
39448;SDS011;25151;45.566;9.382;2023-06-22T14:14:27;9.38;;;3.85;;
39448;SDS011;25151;45.566;9.382;2023-06-22T14:17:31;7.88;;;3.83;;
39448;SDS011;25151;45.566;9.382;2023-06-22T14:20:35;6.57;;;3.28;;
39448;SDS011;25151;45.566;9.382;2023-06-22T14:23:37;8.38;;;4.03;;
39448;SDS011;25151;45.566;9.382;2023-06-22T14:26:40;7.43;;;3.25;;
39448;SDS011;25151;45.566;9.382;2023-06-22T14:29:42;5.18;;;3.47;;
39448;SDS011;25151;45.566;9.382;2023-06-22T14:32:47;4.88;;;3.13;;
39448;SDS011;25151;45.566;9.382;2023-06-22T14:35:49;6.57;;;3.30;;
39448;SDS011;25151;45.566;9.382;2023-06-22T14:38:51;10.25;;;3.50;;
39448;SDS011;25151;45.566;9.382;2023-06-22T14:41:53;9.02;;;3.80;;
39448;SDS011;25151;45.566;9.382;2023-06-22T14:44:56;5.35;;;3.83;;
39448;SDS011;25151;45.566;9.382;2023-06-22T14:48:00;9.30;;;3.08;;
39448;SDS011;25151;45.566;9.382;2023-06-22T14:51:02;7.40;;;3.58;;
39448;SDS011;25151;45.566;9.382;2023-06-22T14:54:06;7.28;;;3.63;;
39448;SDS011;25151;45.566;9.382;2023-06-22T14:57:08;7.50;;;3.20;;
39448;SDS011;25151;45.566;9.382;2023-06-22T15:00:11;5.68;;;3.22;;
39448;SDS011;25151;45.566;9.382;2023-06-22T15:03:16;9.45;;;3.70;;
39448;SDS011;25151;45.566;9.382;2023-06-22T15:06:22;6.82;;;3.10;;
39448;SDS011;25151;45.566;9.382;2023-06-22T15:09:24;4.93;;;2.85;;
39448;SDS011;25151;45.566;9.382;2023-06-22T15:12:27;7.50;;;3.15;;
39448;SDS011;25151;45.566;9.382;2023-06-22T15:15:29;5.28;;;3.22;;
39448;SDS011;25151;45.566;9.382;2023-06-22T15:18:33;7.18;;;3.47;;
39448;SDS011;25151;45.566;9.382;2023-06-22T15:21:35;6.70;;;4.00;;
39448;SDS011;25151;45.566;9.382;2023-06-22T15:24:37;9.45;;;3.95;;
39448;SDS011;25151;45.566;9.382;2023-06-22T15:27:39;6.25;;;3.33;;
39448;SDS011;25151;45.566;9.382;2023-06-22T15:30:41;7.30;;;3.97;;
39448;SDS011;25151;45.566;9.382;2023-06-22T15:33:45;5.45;;;3.58;;
39448;SDS011;25151;45.566;9.382;2023-06-22T15:36:47;6.47;;;3.70;;
39448;SDS011;25151;45.566;9.382;2023-06-22T15:39:50;5.75;;;3.55;;
39448;SDS011;25151;45.566;9.382;2023-06-22T15:42:52;6.10;;;3.38;;
39448;SDS011;25151;45.566;9.382;2023-06-22T15:45:55;6.60;;;3.85;;
39448;SDS011;25151;45.566;9.382;2023-06-22T15:48:58;10.05;;;3.75;;
39448;SDS011;25151;45.566;9.382;2023-06-22T15:52:01;5.68;;;3.47;;
39448;SDS011;25151;45.566;9.382;2023-06-22T15:55:04;6.88;;;3.75;;
39448;SDS011;25151;45.566;9.382;2023-06-22T15:58:09;5.13;;;3.65;;
39448;SDS011;25151;45.566;9.382;2023-06-22T16:01:13;6.75;;;3.95;;
39448;SDS011;25151;45.566;9.382;2023-06-22T16:04:19;4.72;;;3.50;;
39448;SDS011;25151;45.566;9.382;2023-06-22T16:07:21;5.68;;;3.55;;
39448;SDS011;25151;45.566;9.382;2023-06-22T16:10:24;6.53;;;3.75;;
39448;SDS011;25151;45.566;9.382;2023-06-22T16:13:26;6.72;;;3.90;;
39448;SDS011;25151;45.566;9.382;2023-06-22T16:16:29;4.93;;;3.40;;
39448;SDS011;25151;45.566;9.382;2023-06-22T16:19:35;5.05;;;3.80;;
39448;SDS011;25151;45.566;9.382;2023-06-22T16:22:38;8.25;;;3.78;;
39448;SDS011;25151;45.566;9.382;2023-06-22T16:25:43;8.13;;;4.20;;
39448;SDS011;25151;45.566;9.382;2023-06-22T16:28:46;7.00;;;3.53;;
39448;SDS011;25151;45.566;9.382;2023-06-22T16:31:50;7.07;;;3.90;;
39448;SDS011;25151;45.566;9.382;2023-06-22T16:34:56;8.38;;;3.67;;
39448;SDS011;25151;45.566;9.382;2023-06-22T16:38:00;7.78;;;3.70;;
39448;SDS011;25151;45.566;9.382;2023-06-22T16:41:09;8.93;;;3.67;;
39448;SDS011;25151;45.566;9.382;2023-06-22T16:44:13;14.02;;;4.13;;
39448;SDS011;25151;45.566;9.382;2023-06-22T16:47:17;5.18;;;3.08;;
39448;SDS011;25151;45.566;9.382;2023-06-22T16:50:21;7.13;;;3.72;;
39448;SDS011;25151;45.566;9.382;2023-06-22T16:53:25;8.27;;;3.70;;
39448;SDS011;25151;45.566;9.382;2023-06-22T16:56:32;5.95;;;3.42;;
39448;SDS011;25151;45.566;9.382;2023-06-22T16:59:35;6.88;;;3.88;;
39448;SDS011;25151;45.566;9.382;2023-06-22T17:02:42;6.72;;;3.42;;
39448;SDS011;25151;45.566;9.382;2023-06-22T17:05:52;8.73;;;4.27;;
39448;SDS011;25151;45.566;9.382;2023-06-22T17:08:56;7.13;;;4.63;;
39448;SDS011;25151;45.566;9.382;2023-06-22T17:12:01;9.00;;;4.07;;
39448;SDS011;25151;45.566;9.382;2023-06-22T17:15:06;9.05;;;4.28;;
39448;SDS011;25151;45.566;9.382;2023-06-22T17:18:12;5.72;;;3.78;;
39448;SDS011;25151;45.566;9.382;2023-06-22T17:21:22;4.65;;;3.70;;
39448;SDS011;25151;45.566;9.382;2023-06-22T17:24:25;7.40;;;3.83;;
39448;SDS011;25151;45.566;9.382;2023-06-22T17:27:29;7.45;;;3.40;;
39448;SDS011;25151;45.566;9.382;2023-06-22T17:30:35;8.00;;;3.40;;
39448;SDS011;25151;45.566;9.382;2023-06-22T17:33:38;10.45;;;3.65;;
39448;SDS011;25151;45.566;9.382;2023-06-22T17:36:42;5.35;;;3.75;;
39448;SDS011;25151;45.566;9.382;2023-06-22T17:39:45;4.50;;;3.13;;
39448;SDS011;25151;45.566;9.382;2023-06-22T17:43:00;6.78;;;3.78;;
39448;SDS011;25151;45.566;9.382;2023-06-22T17:46:05;7.40;;;3.20;;
39448;SDS011;25151;45.566;9.382;2023-06-22T17:49:11;5.78;;;3.15;;
39448;SDS011;25151;45.566;9.382;2023-06-22T17:52:17;6.97;;;3.80;;
39448;SDS011;25151;45.566;9.382;2023-06-22T17:55:20;5.45;;;2.83;;
39448;SDS011;25151;45.566;9.382;2023-06-22T17:58:22;4.30;;;3.17;;
39448;SDS011;25151;45.566;9.382;2023-06-22T18:01:37;4.30;;;3.03;;
39448;SDS011;25151;45.566;9.382;2023-06-22T18:04:40;5.05;;;3.20;;
39448;SDS011;25151;45.566;9.382;2023-06-22T18:07:44;5.28;;;2.92;;
39448;SDS011;25151;45.566;9.382;2023-06-22T18:10:48;6.85;;;3.30;;
39448;SDS011;25151;45.566;9.382;2023-06-22T18:13:50;5.70;;;3.05;;
39448;SDS011;25151;45.566;9.382;2023-06-22T18:16:52;5.07;;;3.13;;
39448;SDS011;25151;45.566;9.382;2023-06-22T18:19:55;4.63;;;3.10;;
39448;SDS011;25151;45.566;9.382;2023-06-22T18:23:01;4.28;;;3.00;;
39448;SDS011;25151;45.566;9.382;2023-06-22T18:26:04;4.65;;;3.45;;